sensor_id;sensor_type;location;lat;lon;timestamp;temperature;humidity
13462;DHT22;6803;45.264;5.468;2022-11-03T00:01:50;8.90;99.90
13462;DHT22;6803;45.264;5.468;2022-11-03T00:04:22;8.80;99.90
13462;DHT22;6803;45.264;5.468;2022-11-03T00:06:54;8.60;99.90
13462;DHT22;6803;45.264;5.468;2022-11-03T00:09:25;8.50;99.90
13462;DHT22;6803;45.264;5.468;2022-11-03T00:11:55;8.50;99.90
13462;DHT22;6803;45.264;5.468;2022-11-03T00:14:28;8.50;99.90
13462;DHT22;6803;45.264;5.468;2022-11-03T00:16:58;8.30;99.90
13462;DHT22;6803;45.264;5.468;2022-11-03T00:19:29;8.30;99.90
13462;DHT22;6803;45.264;5.468;2022-11-03T00:21:59;8.30;99.90
13462;DHT22;6803;45.264;5.468;2022-11-03T00:24:30;8.40;99.90
13462;DHT22;6803;45.264;5.468;2022-11-03T00:27:01;8.50;99.90
13462;DHT22;6803;45.264;5.468;2022-11-03T00:29:31;8.50;99.90
13462;DHT22;6803;45.264;5.468;2022-11-03T00:32:02;8.50;99.90
13462;DHT22;6803;45.264;5.468;2022-11-03T00:34:32;8.60;99.90
13462;DHT22;6803;45.264;5.468;2022-11-03T00:37:03;8.70;99.90
13462;DHT22;6803;45.264;5.468;2022-11-03T00:39:33;8.50;99.90
13462;DHT22;6803;45.264;5.468;2022-11-03T00:42:05;8.30;99.90
13462;DHT22;6803;45.264;5.468;2022-11-03T00:44:35;8.10;99.90
13462;DHT22;6803;45.264;5.468;2022-11-03T00:47:06;8.00;99.90
13462;DHT22;6803;45.264;5.468;2022-11-03T00:49:36;8.00;99.90
13462;DHT22;6803;45.264;5.468;2022-11-03T00:52:07;8.00;99.90
13462;DHT22;6803;45.264;5.468;2022-11-03T00:54:37;8.30;99.90
13462;DHT22;6803;45.264;5.468;2022-11-03T00:57:10;8.20;99.90
13462;DHT22;6803;45.264;5.468;2022-11-03T00:59:41;8.10;99.90
13462;DHT22;6803;45.264;5.468;2022-11-03T01:02:12;8.60;99.90
13462;DHT22;6803;45.264;5.468;2022-11-03T01:04:42;8.60;99.90
13462;DHT22;6803;45.264;5.468;2022-11-03T01:07:30;8.70;99.90
13462;DHT22;6803;45.264;5.468;2022-11-03T01:10:01;8.60;99.90
13462;DHT22;6803;45.264;5.468;2022-11-03T01:12:32;8.70;99.90
13462;DHT22;6803;45.264;5.468;2022-11-03T01:15:03;8.50;99.90
13462;DHT22;6803;45.264;5.468;2022-11-03T01:17:33;8.30;99.90
13462;DHT22;6803;45.264;5.468;2022-11-03T01:20:05;8.20;99.90
13462;DHT22;6803;45.264;5.468;2022-11-03T01:22:36;8.10;99.90
13462;DHT22;6803;45.264;5.468;2022-11-03T01:25:08;8.20;99.90
13462;DHT22;6803;45.264;5.468;2022-11-03T01:27:38;8.10;99.90
13462;DHT22;6803;45.264;5.468;2022-11-03T01:30:11;7.90;99.90
13462;DHT22;6803;45.264;5.468;2022-11-03T01:32:41;7.80;99.90
13462;DHT22;6803;45.264;5.468;2022-11-03T01:35:12;7.60;99.90
13462;DHT22;6803;45.264;5.468;2022-11-03T01:37:43;7.60;99.90
13462;DHT22;6803;45.264;5.468;2022-11-03T01:40:13;7.50;99.90
13462;DHT22;6803;45.264;5.468;2022-11-03T01:42:44;7.40;99.90
13462;DHT22;6803;45.264;5.468;2022-11-03T01:45:15;7.40;99.90
13462;DHT22;6803;45.264;5.468;2022-11-03T01:47:46;7.60;99.90
13462;DHT22;6803;45.264;5.468;2022-11-03T01:50:18;7.70;99.90
13462;DHT22;6803;45.264;5.468;2022-11-03T01:52:51;7.70;99.90
13462;DHT22;6803;45.264;5.468;2022-11-03T01:55:25;7.70;99.90
13462;DHT22;6803;45.264;5.468;2022-11-03T01:57:58;7.70;99.90
13462;DHT22;6803;45.264;5.468;2022-11-03T02:00:29;7.70;99.90
13462;DHT22;6803;45.264;5.468;2022-11-03T02:03:00;7.90;99.90
13462;DHT22;6803;45.264;5.468;2022-11-03T02:05:31;8.10;99.90
13462;DHT22;6803;45.264;5.468;2022-11-03T02:08:04;8.00;99.90
13462;DHT22;6803;45.264;5.468;2022-11-03T02:10:37;8.10;99.90
13462;DHT22;6803;45.264;5.468;2022-11-03T02:13:11;8.10;99.90
13462;DHT22;6803;45.264;5.468;2022-11-03T02:15:43;8.30;99.90
13462;DHT22;6803;45.264;5.468;2022-11-03T02:18:14;8.10;99.90
13462;DHT22;6803;45.264;5.468;2022-11-03T02:20:48;7.90;99.90
13462;DHT22;6803;45.264;5.468;2022-11-03T02:23:27;7.90;99.90
13462;DHT22;6803;45.264;5.468;2022-11-03T02:25:59;8.10;99.90
13462;DHT22;6803;45.264;5.468;2022-11-03T02:28:31;8.00;99.90
13462;DHT22;6803;45.264;5.468;2022-11-03T02:31:07;8.10;99.90
13462;DHT22;6803;45.264;5.468;2022-11-03T02:33:45;8.20;99.90
13462;DHT22;6803;45.264;5.468;2022-11-03T02:36:18;8.20;99.90
13462;DHT22;6803;45.264;5.468;2022-11-03T02:38:53;8.30;99.90
13462;DHT22;6803;45.264;5.468;2022-11-03T02:41:26;8.20;99.90
13462;DHT22;6803;45.264;5.468;2022-11-03T02:43:58;8.00;99.90
13462;DHT22;6803;45.264;5.468;2022-11-03T02:46:30;8.00;99.90
13462;DHT22;6803;45.264;5.468;2022-11-03T02:49:01;7.90;99.90
13462;DHT22;6803;45.264;5.468;2022-11-03T02:51:32;8.30;99.90
13462;DHT22;6803;45.264;5.468;2022-11-03T02:54:06;8.30;99.90
13462;DHT22;6803;45.264;5.468;2022-11-03T02:56:41;8.30;99.90
13462;DHT22;6803;45.264;5.468;2022-11-03T02:59:14;8.10;99.90
13462;DHT22;6803;45.264;5.468;2022-11-03T03:01:48;7.90;99.90
13462;DHT22;6803;45.264;5.468;2022-11-03T03:04:24;7.70;99.90
13462;DHT22;6803;45.264;5.468;2022-11-03T03:06:58;7.80;99.90
13462;DHT22;6803;45.264;5.468;2022-11-03T03:09:32;7.90;99.90
13462;DHT22;6803;45.264;5.468;2022-11-03T03:12:05;8.10;99.90
13462;DHT22;6803;45.264;5.468;2022-11-03T03:14:37;8.40;99.90
13462;DHT22;6803;45.264;5.468;2022-11-03T03:17:13;8.30;99.90
13462;DHT22;6803;45.264;5.468;2022-11-03T03:19:47;8.20;99.90
13462;DHT22;6803;45.264;5.468;2022-11-03T03:22:23;8.20;99.90
13462;DHT22;6803;45.264;5.468;2022-11-03T03:24:57;7.80;99.90
13462;DHT22;6803;45.264;5.468;2022-11-03T03:27:30;7.90;99.90
13462;DHT22;6803;45.264;5.468;2022-11-03T03:30:03;8.30;99.90
13462;DHT22;6803;45.264;5.468;2022-11-03T03:32:36;8.50;99.90
13462;DHT22;6803;45.264;5.468;2022-11-03T03:35:11;8.80;99.90
13462;DHT22;6803;45.264;5.468;2022-11-03T03:37:44;8.80;99.90
13462;DHT22;6803;45.264;5.468;2022-11-03T03:40:19;8.30;99.90
13462;DHT22;6803;45.264;5.468;2022-11-03T03:42:51;8.00;99.90
13462;DHT22;6803;45.264;5.468;2022-11-03T03:45:24;8.00;99.90
13462;DHT22;6803;45.264;5.468;2022-11-03T03:47:55;7.90;99.90
13462;DHT22;6803;45.264;5.468;2022-11-03T03:50:28;8.10;99.90
13462;DHT22;6803;45.264;5.468;2022-11-03T03:53:01;8.30;99.90
13462;DHT22;6803;45.264;5.468;2022-11-03T03:55:35;8.20;99.90
13462;DHT22;6803;45.264;5.468;2022-11-03T03:58:06;8.20;99.90
13462;DHT22;6803;45.264;5.468;2022-11-03T04:00:37;8.20;99.90
13462;DHT22;6803;45.264;5.468;2022-11-03T04:03:13;8.40;99.90
13462;DHT22;6803;45.264;5.468;2022-11-03T04:05:45;8.50;99.90
13462;DHT22;6803;45.264;5.468;2022-11-03T04:08:17;8.70;99.90
13462;DHT22;6803;45.264;5.468;2022-11-03T04:10:47;8.70;99.90
13462;DHT22;6803;45.264;5.468;2022-11-03T04:13:37;8.70;99.90
13462;DHT22;6803;45.264;5.468;2022-11-03T04:16:25;8.60;99.90
13462;DHT22;6803;45.264;5.468;2022-11-03T04:19:13;8.70;99.90
13462;DHT22;6803;45.264;5.468;2022-11-03T04:24:59;8.60;99.90
13462;DHT22;6803;45.264;5.468;2022-11-03T04:27:32;8.50;99.90
13462;DHT22;6803;45.264;5.468;2022-11-03T04:30:13;8.50;99.90
13462;DHT22;6803;45.264;5.468;2022-11-03T04:32:46;8.40;99.90
13462;DHT22;6803;45.264;5.468;2022-11-03T04:35:20;8.20;99.90
13462;DHT22;6803;45.264;5.468;2022-11-03T04:37:54;8.20;99.90
13462;DHT22;6803;45.264;5.468;2022-11-03T04:40:26;8.20;99.90
13462;DHT22;6803;45.264;5.468;2022-11-03T04:42:57;8.30;99.90
13462;DHT22;6803;45.264;5.468;2022-11-03T04:45:31;8.00;99.90
13462;DHT22;6803;45.264;5.468;2022-11-03T04:48:09;7.90;99.90
13462;DHT22;6803;45.264;5.468;2022-11-03T04:50:38;7.70;99.90
13462;DHT22;6803;45.264;5.468;2022-11-03T04:53:12;7.60;99.90
13462;DHT22;6803;45.264;5.468;2022-11-03T04:55:44;7.60;99.90
13462;DHT22;6803;45.264;5.468;2022-11-03T04:58:19;7.50;99.90
13462;DHT22;6803;45.264;5.468;2022-11-03T05:00:52;7.60;99.90
13462;DHT22;6803;45.264;5.468;2022-11-03T05:03:24;7.70;99.90
13462;DHT22;6803;45.264;5.468;2022-11-03T05:05:55;7.70;99.90
13462;DHT22;6803;45.264;5.468;2022-11-03T05:08:26;7.60;99.90
13462;DHT22;6803;45.264;5.468;2022-11-03T05:10:57;7.70;99.90
13462;DHT22;6803;45.264;5.468;2022-11-03T05:13:29;7.70;99.90
13462;DHT22;6803;45.264;5.468;2022-11-03T05:16:02;7.70;99.90
13462;DHT22;6803;45.264;5.468;2022-11-03T05:18:35;7.60;99.90
13462;DHT22;6803;45.264;5.468;2022-11-03T05:21:08;7.70;99.90
13462;DHT22;6803;45.264;5.468;2022-11-03T05:23:41;7.90;99.90
13462;DHT22;6803;45.264;5.468;2022-11-03T05:26:16;8.10;99.90
13462;DHT22;6803;45.264;5.468;2022-11-03T05:28:49;8.20;99.90
13462;DHT22;6803;45.264;5.468;2022-11-03T05:31:26;7.90;99.90
13462;DHT22;6803;45.264;5.468;2022-11-03T05:33:59;8.30;99.90
13462;DHT22;6803;45.264;5.468;2022-11-03T05:36:31;8.10;99.90
13462;DHT22;6803;45.264;5.468;2022-11-03T05:41:41;8.10;99.90
13462;DHT22;6803;45.264;5.468;2022-11-03T05:46:54;8.00;99.90
13462;DHT22;6803;45.264;5.468;2022-11-03T05:49:24;8.50;99.90
13462;DHT22;6803;45.264;5.468;2022-11-03T05:51:56;8.30;99.90
13462;DHT22;6803;45.264;5.468;2022-11-03T05:54:30;8.20;99.90
13462;DHT22;6803;45.264;5.468;2022-11-03T05:57:01;8.50;99.90
13462;DHT22;6803;45.264;5.468;2022-11-03T05:59:33;8.50;99.90
13462;DHT22;6803;45.264;5.468;2022-11-03T06:02:07;8.30;99.90
13462;DHT22;6803;45.264;5.468;2022-11-03T06:04:40;8.20;99.90
13462;DHT22;6803;45.264;5.468;2022-11-03T06:10:22;8.10;99.90
13462;DHT22;6803;45.264;5.468;2022-11-03T06:12:58;7.90;99.90
13462;DHT22;6803;45.264;5.468;2022-11-03T06:15:31;7.80;99.90
13462;DHT22;6803;45.264;5.468;2022-11-03T06:18:09;7.90;99.90
13462;DHT22;6803;45.264;5.468;2022-11-03T06:20:42;8.00;99.90
13462;DHT22;6803;45.264;5.468;2022-11-03T06:23:15;8.10;99.90
13462;DHT22;6803;45.264;5.468;2022-11-03T06:25:48;8.20;99.90
13462;DHT22;6803;45.264;5.468;2022-11-03T06:28:23;8.20;99.90
13462;DHT22;6803;45.264;5.468;2022-11-03T06:30:55;8.20;99.90
13462;DHT22;6803;45.264;5.468;2022-11-03T06:33:27;8.40;99.90
13462;DHT22;6803;45.264;5.468;2022-11-03T06:36:02;8.50;99.90
13462;DHT22;6803;45.264;5.468;2022-11-03T06:38:34;8.50;99.90
13462;DHT22;6803;45.264;5.468;2022-11-03T06:41:07;8.60;99.90
13462;DHT22;6803;45.264;5.468;2022-11-03T06:43:42;8.60;99.90
13462;DHT22;6803;45.264;5.468;2022-11-03T06:46:18;8.60;99.90
13462;DHT22;6803;45.264;5.468;2022-11-03T06:48:51;8.60;99.90
13462;DHT22;6803;45.264;5.468;2022-11-03T06:51:25;8.60;99.90
13462;DHT22;6803;45.264;5.468;2022-11-03T06:53:58;8.60;99.90
13462;DHT22;6803;45.264;5.468;2022-11-03T06:59:12;8.20;99.90
13462;DHT22;6803;45.264;5.468;2022-11-03T07:01:45;8.40;99.90
13462;DHT22;6803;45.264;5.468;2022-11-03T07:04:20;8.40;99.90
13462;DHT22;6803;45.264;5.468;2022-11-03T07:06:52;8.50;99.90
13462;DHT22;6803;45.264;5.468;2022-11-03T07:09:24;8.60;99.90
13462;DHT22;6803;45.264;5.468;2022-11-03T07:11:56;8.60;99.90
13462;DHT22;6803;45.264;5.468;2022-11-03T07:14:29;8.60;99.90
13462;DHT22;6803;45.264;5.468;2022-11-03T07:17:02;8.70;99.90
13462;DHT22;6803;45.264;5.468;2022-11-03T07:19:35;8.80;99.90
13462;DHT22;6803;45.264;5.468;2022-11-03T07:22:13;8.70;99.90
13462;DHT22;6803;45.264;5.468;2022-11-03T07:24:44;8.80;99.90
13462;DHT22;6803;45.264;5.468;2022-11-03T07:27:19;8.80;99.90
13462;DHT22;6803;45.264;5.468;2022-11-03T07:29:51;8.90;99.90
13462;DHT22;6803;45.264;5.468;2022-11-03T07:32:25;9.00;99.90
13462;DHT22;6803;45.264;5.468;2022-11-03T07:34:58;9.00;99.90
13462;DHT22;6803;45.264;5.468;2022-11-03T07:37:29;9.10;99.90
13462;DHT22;6803;45.264;5.468;2022-11-03T07:40:00;9.30;99.90
13462;DHT22;6803;45.264;5.468;2022-11-03T07:42:32;9.40;99.90
13462;DHT22;6803;45.264;5.468;2022-11-03T07:45:20;9.50;99.90
13462;DHT22;6803;45.264;5.468;2022-11-03T07:47:41;9.70;99.90
13462;DHT22;6803;45.264;5.468;2022-11-03T07:50:15;9.90;99.90
13462;DHT22;6803;45.264;5.468;2022-11-03T07:52:46;10.10;99.90
13462;DHT22;6803;45.264;5.468;2022-11-03T07:55:17;10.20;99.90
13462;DHT22;6803;45.264;5.468;2022-11-03T07:57:48;10.20;99.90
13462;DHT22;6803;45.264;5.468;2022-11-03T08:00:18;10.30;99.90
13462;DHT22;6803;45.264;5.468;2022-11-03T08:02:53;10.40;99.90
13462;DHT22;6803;45.264;5.468;2022-11-03T08:05:25;10.50;99.90
13462;DHT22;6803;45.264;5.468;2022-11-03T08:07:56;10.70;99.90
13462;DHT22;6803;45.264;5.468;2022-11-03T08:10:26;10.80;99.90
13462;DHT22;6803;45.264;5.468;2022-11-03T08:15:36;11.00;99.90
13462;DHT22;6803;45.264;5.468;2022-11-03T08:18:07;10.90;99.90
13462;DHT22;6803;45.264;5.468;2022-11-03T08:20:38;10.70;99.90
13462;DHT22;6803;45.264;5.468;2022-11-03T08:23:08;10.80;99.90
13462;DHT22;6803;45.264;5.468;2022-11-03T08:25:41;10.90;99.90
13462;DHT22;6803;45.264;5.468;2022-11-03T08:28:12;11.00;99.90
13462;DHT22;6803;45.264;5.468;2022-11-03T08:30:42;11.10;99.90
13462;DHT22;6803;45.264;5.468;2022-11-03T08:33:13;11.20;99.90
13462;DHT22;6803;45.264;5.468;2022-11-03T08:35:44;11.40;99.90
13462;DHT22;6803;45.264;5.468;2022-11-03T08:38:14;11.40;99.90
13462;DHT22;6803;45.264;5.468;2022-11-03T08:40:45;11.50;99.90
13462;DHT22;6803;45.264;5.468;2022-11-03T08:43:17;11.50;99.90
13462;DHT22;6803;45.264;5.468;2022-11-03T08:45:48;11.60;99.90
13462;DHT22;6803;45.264;5.468;2022-11-03T08:48:22;11.70;99.90
13462;DHT22;6803;45.264;5.468;2022-11-03T08:50:55;11.80;99.90
13462;DHT22;6803;45.264;5.468;2022-11-03T08:53:26;11.90;99.90
13462;DHT22;6803;45.264;5.468;2022-11-03T08:55:56;11.90;99.90
13462;DHT22;6803;45.264;5.468;2022-11-03T08:58:27;11.70;99.90
13462;DHT22;6803;45.264;5.468;2022-11-03T09:00:58;11.80;99.90
13462;DHT22;6803;45.264;5.468;2022-11-03T09:03:28;11.90;99.90
13462;DHT22;6803;45.264;5.468;2022-11-03T09:05:59;12.00;99.90
13462;DHT22;6803;45.264;5.468;2022-11-03T09:08:30;11.80;99.90
13462;DHT22;6803;45.264;5.468;2022-11-03T09:11:02;11.70;99.90
13462;DHT22;6803;45.264;5.468;2022-11-03T09:13:32;11.70;99.90
13462;DHT22;6803;45.264;5.468;2022-11-03T09:16:04;11.60;99.90
13462;DHT22;6803;45.264;5.468;2022-11-03T09:18:34;11.70;99.90
13462;DHT22;6803;45.264;5.468;2022-11-03T09:21:05;11.80;99.90
13462;DHT22;6803;45.264;5.468;2022-11-03T09:23:36;12.00;99.90
13462;DHT22;6803;45.264;5.468;2022-11-03T09:26:07;12.10;99.90
13462;DHT22;6803;45.264;5.468;2022-11-03T09:28:38;12.20;99.90
13462;DHT22;6803;45.264;5.468;2022-11-03T09:31:08;12.40;99.90
13462;DHT22;6803;45.264;5.468;2022-11-03T09:33:39;12.50;99.90
13462;DHT22;6803;45.264;5.468;2022-11-03T09:36:10;12.30;99.90
13462;DHT22;6803;45.264;5.468;2022-11-03T09:38:40;12.30;99.90
13462;DHT22;6803;45.264;5.468;2022-11-03T09:41:11;12.40;99.90
13462;DHT22;6803;45.264;5.468;2022-11-03T09:43:46;12.60;99.90
13462;DHT22;6803;45.264;5.468;2022-11-03T09:46:19;12.70;99.90
13462;DHT22;6803;45.264;5.468;2022-11-03T09:48:49;12.80;99.90
13462;DHT22;6803;45.264;5.468;2022-11-03T09:51:21;13.00;99.90
13462;DHT22;6803;45.264;5.468;2022-11-03T09:53:53;13.10;99.90
13462;DHT22;6803;45.264;5.468;2022-11-03T09:56:25;13.10;99.90
13462;DHT22;6803;45.264;5.468;2022-11-03T09:58:56;13.00;99.90
13462;DHT22;6803;45.264;5.468;2022-11-03T10:01:49;12.70;99.90
13462;DHT22;6803;45.264;5.468;2022-11-03T10:04:21;12.30;99.90
13462;DHT22;6803;45.264;5.468;2022-11-03T10:06:54;11.70;99.90
13462;DHT22;6803;45.264;5.468;2022-11-03T10:09:25;11.70;99.90
13462;DHT22;6803;45.264;5.468;2022-11-03T10:11:58;11.80;99.90
13462;DHT22;6803;45.264;5.468;2022-11-03T10:14:29;11.70;99.90
13462;DHT22;6803;45.264;5.468;2022-11-03T10:17:00;11.40;99.90
13462;DHT22;6803;45.264;5.468;2022-11-03T10:19:31;11.50;99.90
13462;DHT22;6803;45.264;5.468;2022-11-03T10:22:02;11.60;99.90
13462;DHT22;6803;45.264;5.468;2022-11-03T10:24:32;11.70;99.90
13462;DHT22;6803;45.264;5.468;2022-11-03T10:27:05;11.80;99.90
13462;DHT22;6803;45.264;5.468;2022-11-03T10:29:36;11.90;99.90
13462;DHT22;6803;45.264;5.468;2022-11-03T10:32:20;12.00;99.90
13462;DHT22;6803;45.264;5.468;2022-11-03T10:34:45;12.10;99.90
13462;DHT22;6803;45.264;5.468;2022-11-03T10:37:18;12.20;99.90
13462;DHT22;6803;45.264;5.468;2022-11-03T10:39:50;12.30;99.90
13462;DHT22;6803;45.264;5.468;2022-11-03T10:42:23;12.40;99.90
13462;DHT22;6803;45.264;5.468;2022-11-03T10:45:08;12.60;99.90
13462;DHT22;6803;45.264;5.468;2022-11-03T10:47:40;12.60;99.90
13462;DHT22;6803;45.264;5.468;2022-11-03T10:50:20;12.50;99.90
13462;DHT22;6803;45.264;5.468;2022-11-03T10:52:51;12.40;99.90
13462;DHT22;6803;45.264;5.468;2022-11-03T10:55:23;12.50;99.90
13462;DHT22;6803;45.264;5.468;2022-11-03T10:57:55;12.40;99.90
13462;DHT22;6803;45.264;5.468;2022-11-03T11:00:27;12.30;99.90
13462;DHT22;6803;45.264;5.468;2022-11-03T11:02:59;12.30;99.90
13462;DHT22;6803;45.264;5.468;2022-11-03T11:05:30;12.30;99.90
13462;DHT22;6803;45.264;5.468;2022-11-03T11:08:01;12.00;99.90
13462;DHT22;6803;45.264;5.468;2022-11-03T11:10:32;11.90;99.90
13462;DHT22;6803;45.264;5.468;2022-11-03T11:16:03;11.60;99.90
13462;DHT22;6803;45.264;5.468;2022-11-03T11:19:01;11.50;99.90
13462;DHT22;6803;45.264;5.468;2022-11-03T11:21:56;11.60;99.90
13462;DHT22;6803;45.264;5.468;2022-11-03T11:27:57;11.50;99.90
13462;DHT22;6803;45.264;5.468;2022-11-03T11:33:33;11.80;99.90
13462;DHT22;6803;45.264;5.468;2022-11-03T11:36:22;11.90;99.90
13462;DHT22;6803;45.264;5.468;2022-11-03T11:38:57;11.90;99.90
13462;DHT22;6803;45.264;5.468;2022-11-03T11:42:06;11.90;99.90
13462;DHT22;6803;45.264;5.468;2022-11-03T11:44:48;11.90;99.90
13462;DHT22;6803;45.264;5.468;2022-11-03T11:47:33;11.90;99.90
13462;DHT22;6803;45.264;5.468;2022-11-03T11:53:20;11.80;99.90
13462;DHT22;6803;45.264;5.468;2022-11-03T11:55:54;11.80;99.90
13462;DHT22;6803;45.264;5.468;2022-11-03T11:58:35;11.90;99.90
13462;DHT22;6803;45.264;5.468;2022-11-03T12:01:19;11.90;99.90
13462;DHT22;6803;45.264;5.468;2022-11-03T12:03:52;11.90;99.90
13462;DHT22;6803;45.264;5.468;2022-11-03T12:06:34;11.90;99.90
13462;DHT22;6803;45.264;5.468;2022-11-03T12:09:06;11.80;99.90
13462;DHT22;6803;45.264;5.468;2022-11-03T12:11:42;11.80;99.90
13462;DHT22;6803;45.264;5.468;2022-11-03T12:14:23;11.80;99.90
13462;DHT22;6803;45.264;5.468;2022-11-03T12:16:54;11.80;99.90
13462;DHT22;6803;45.264;5.468;2022-11-03T12:19:37;11.90;99.90
13462;DHT22;6803;45.264;5.468;2022-11-03T12:22:29;11.70;99.90
13462;DHT22;6803;45.264;5.468;2022-11-03T12:24:49;11.80;99.90
13462;DHT22;6803;45.264;5.468;2022-11-03T12:27:41;11.80;99.90
13462;DHT22;6803;45.264;5.468;2022-11-03T12:30:17;11.80;99.90
13462;DHT22;6803;45.264;5.468;2022-11-03T12:32:48;11.80;99.90
13462;DHT22;6803;45.264;5.468;2022-11-03T12:35:20;11.70;99.90
13462;DHT22;6803;45.264;5.468;2022-11-03T12:37:50;11.80;99.90
13462;DHT22;6803;45.264;5.468;2022-11-03T12:40:21;11.80;99.90
13462;DHT22;6803;45.264;5.468;2022-11-03T12:42:51;11.80;99.90
13462;DHT22;6803;45.264;5.468;2022-11-03T12:45:22;11.80;99.90
13462;DHT22;6803;45.264;5.468;2022-11-03T12:47:53;11.80;99.90
13462;DHT22;6803;45.264;5.468;2022-11-03T12:50:23;11.90;99.90
13462;DHT22;6803;45.264;5.468;2022-11-03T12:52:54;11.90;99.90
13462;DHT22;6803;45.264;5.468;2022-11-03T12:55:24;11.90;99.90
13462;DHT22;6803;45.264;5.468;2022-11-03T12:57:56;11.90;99.90
13462;DHT22;6803;45.264;5.468;2022-11-03T13:00:26;11.90;99.90
13462;DHT22;6803;45.264;5.468;2022-11-03T13:02:57;11.90;99.90
13462;DHT22;6803;45.264;5.468;2022-11-03T13:05:27;11.90;99.90
13462;DHT22;6803;45.264;5.468;2022-11-03T13:07:58;11.90;99.90
13462;DHT22;6803;45.264;5.468;2022-11-03T13:10:29;11.90;99.90
13462;DHT22;6803;45.264;5.468;2022-11-03T13:12:59;11.90;99.90
13462;DHT22;6803;45.264;5.468;2022-11-03T13:15:49;12.00;99.90
13462;DHT22;6803;45.264;5.468;2022-11-03T13:18:21;12.00;99.90
13462;DHT22;6803;45.264;5.468;2022-11-03T13:20:52;12.10;99.90
13462;DHT22;6803;45.264;5.468;2022-11-03T13:23:23;12.10;99.90
13462;DHT22;6803;45.264;5.468;2022-11-03T13:25:53;12.20;99.90
13462;DHT22;6803;45.264;5.468;2022-11-03T13:28:24;12.10;99.90
13462;DHT22;6803;45.264;5.468;2022-11-03T13:30:54;12.10;99.90
13462;DHT22;6803;45.264;5.468;2022-11-03T13:33:25;12.20;99.90
13462;DHT22;6803;45.264;5.468;2022-11-03T13:35:55;12.20;99.90
13462;DHT22;6803;45.264;5.468;2022-11-03T13:38:26;12.20;99.90
13462;DHT22;6803;45.264;5.468;2022-11-03T13:40:57;12.20;99.90
13462;DHT22;6803;45.264;5.468;2022-11-03T13:43:29;12.20;99.90
13462;DHT22;6803;45.264;5.468;2022-11-03T13:46:00;12.20;99.90
13462;DHT22;6803;45.264;5.468;2022-11-03T13:48:32;12.20;99.90
13462;DHT22;6803;45.264;5.468;2022-11-03T13:51:04;12.20;99.90
13462;DHT22;6803;45.264;5.468;2022-11-03T13:53:37;12.10;99.90
13462;DHT22;6803;45.264;5.468;2022-11-03T13:56:09;12.10;99.90
13462;DHT22;6803;45.264;5.468;2022-11-03T13:58:41;12.20;99.90
13462;DHT22;6803;45.264;5.468;2022-11-03T14:01:13;12.30;99.90
13462;DHT22;6803;45.264;5.468;2022-11-03T14:03:44;12.30;99.90
13462;DHT22;6803;45.264;5.468;2022-11-03T14:06:16;12.30;99.90
13462;DHT22;6803;45.264;5.468;2022-11-03T14:08:47;12.40;99.90
13462;DHT22;6803;45.264;5.468;2022-11-03T14:11:18;12.30;99.90
13462;DHT22;6803;45.264;5.468;2022-11-03T14:14:06;12.30;99.90
13462;DHT22;6803;45.264;5.468;2022-11-03T14:16:36;12.30;99.90
13462;DHT22;6803;45.264;5.468;2022-11-03T14:19:07;12.30;99.90
13462;DHT22;6803;45.264;5.468;2022-11-03T14:21:38;12.30;99.90
13462;DHT22;6803;45.264;5.468;2022-11-03T14:24:11;12.30;99.90
13462;DHT22;6803;45.264;5.468;2022-11-03T14:26:41;12.30;99.90
13462;DHT22;6803;45.264;5.468;2022-11-03T14:29:31;12.40;99.90
13462;DHT22;6803;45.264;5.468;2022-11-03T14:32:01;12.40;99.90
13462;DHT22;6803;45.264;5.468;2022-11-03T14:34:32;12.50;99.90
13462;DHT22;6803;45.264;5.468;2022-11-03T14:37:03;12.40;99.90
13462;DHT22;6803;45.264;5.468;2022-11-03T14:39:34;12.50;99.90
13462;DHT22;6803;45.264;5.468;2022-11-03T14:42:08;12.50;99.90
13462;DHT22;6803;45.264;5.468;2022-11-03T14:44:39;12.50;99.90
13462;DHT22;6803;45.264;5.468;2022-11-03T14:47:12;12.40;99.90
13462;DHT22;6803;45.264;5.468;2022-11-03T14:49:43;12.40;99.90
13462;DHT22;6803;45.264;5.468;2022-11-03T14:52:14;12.50;99.90
13462;DHT22;6803;45.264;5.468;2022-11-03T14:54:45;12.50;99.90
13462;DHT22;6803;45.264;5.468;2022-11-03T14:57:16;12.50;99.90
13462;DHT22;6803;45.264;5.468;2022-11-03T15:00:07;12.50;99.90
13462;DHT22;6803;45.264;5.468;2022-11-03T15:02:39;12.50;99.90
13462;DHT22;6803;45.264;5.468;2022-11-03T15:05:10;12.50;99.90
13462;DHT22;6803;45.264;5.468;2022-11-03T15:07:42;12.40;99.90
13462;DHT22;6803;45.264;5.468;2022-11-03T15:10:13;12.40;99.90
13462;DHT22;6803;45.264;5.468;2022-11-03T15:12:43;12.30;99.90
13462;DHT22;6803;45.264;5.468;2022-11-03T15:15:14;12.40;99.90
13462;DHT22;6803;45.264;5.468;2022-11-03T15:17:45;12.40;99.90
13462;DHT22;6803;45.264;5.468;2022-11-03T15:20:15;12.30;99.90
13462;DHT22;6803;45.264;5.468;2022-11-03T15:22:46;12.30;99.90
13462;DHT22;6803;45.264;5.468;2022-11-03T15:25:18;12.30;99.90
13462;DHT22;6803;45.264;5.468;2022-11-03T15:27:51;12.30;99.90
13462;DHT22;6803;45.264;5.468;2022-11-03T15:30:21;12.30;99.90
13462;DHT22;6803;45.264;5.468;2022-11-03T15:32:52;12.30;99.90
13462;DHT22;6803;45.264;5.468;2022-11-03T15:35:25;12.30;99.90
13462;DHT22;6803;45.264;5.468;2022-11-03T15:37:55;12.30;99.90
13462;DHT22;6803;45.264;5.468;2022-11-03T15:40:27;12.20;99.90
13462;DHT22;6803;45.264;5.468;2022-11-03T15:42:57;12.20;99.90
13462;DHT22;6803;45.264;5.468;2022-11-03T15:45:30;12.20;99.90
13462;DHT22;6803;45.264;5.468;2022-11-03T15:48:01;12.20;99.90
13462;DHT22;6803;45.264;5.468;2022-11-03T15:53:11;12.10;99.90
13462;DHT22;6803;45.264;5.468;2022-11-03T15:55:41;12.10;99.90
13462;DHT22;6803;45.264;5.468;2022-11-03T15:58:31;12.10;99.90
13462;DHT22;6803;45.264;5.468;2022-11-03T16:01:02;12.10;99.90
13462;DHT22;6803;45.264;5.468;2022-11-03T16:03:33;12.10;99.90
13462;DHT22;6803;45.264;5.468;2022-11-03T16:06:04;12.10;99.90
13462;DHT22;6803;45.264;5.468;2022-11-03T16:08:35;12.10;99.90
13462;DHT22;6803;45.264;5.468;2022-11-03T16:11:06;12.10;99.90
13462;DHT22;6803;45.264;5.468;2022-11-03T16:13:37;12.00;99.90
13462;DHT22;6803;45.264;5.468;2022-11-03T16:16:08;12.10;99.90
13462;DHT22;6803;45.264;5.468;2022-11-03T16:18:39;12.10;99.90
13462;DHT22;6803;45.264;5.468;2022-11-03T16:21:10;12.10;99.90
13462;DHT22;6803;45.264;5.468;2022-11-03T16:23:41;12.10;99.90
13462;DHT22;6803;45.264;5.468;2022-11-03T16:26:12;12.10;99.90
13462;DHT22;6803;45.264;5.468;2022-11-03T16:28:43;12.20;99.90
13462;DHT22;6803;45.264;5.468;2022-11-03T16:31:14;12.10;99.90
13462;DHT22;6803;45.264;5.468;2022-11-03T16:33:45;12.10;99.90
13462;DHT22;6803;45.264;5.468;2022-11-03T16:36:15;12.10;99.90
13462;DHT22;6803;45.264;5.468;2022-11-03T16:38:47;12.10;99.90
13462;DHT22;6803;45.264;5.468;2022-11-03T16:41:17;12.10;99.90
13462;DHT22;6803;45.264;5.468;2022-11-03T16:43:48;12.20;99.90
13462;DHT22;6803;45.264;5.468;2022-11-03T16:46:20;12.20;99.90
13462;DHT22;6803;45.264;5.468;2022-11-03T16:48:51;12.20;99.90
13462;DHT22;6803;45.264;5.468;2022-11-03T16:51:21;12.20;99.90
13462;DHT22;6803;45.264;5.468;2022-11-03T16:53:52;12.20;99.90
13462;DHT22;6803;45.264;5.468;2022-11-03T16:56:24;12.20;99.90
13462;DHT22;6803;45.264;5.468;2022-11-03T16:58:55;12.20;99.90
13462;DHT22;6803;45.264;5.468;2022-11-03T17:01:26;12.20;99.90